Map

Track Data

SID SEASON NUMBER BASIN SUBBASIN NAME ISO_TIME NATURE LAT LON WMO_WIND WMO_PRES WMO_AGENCY TRACK_TYPE DIST2LAND LANDFALL IFLAG USA_AGENCY USA_ATCF_ID USA_LAT USA_LON USA_RECORD USA_STATUS USA_WIND USA_PRES USA_SSHS USA_R34_NE USA_R34_SE USA_R34_SW USA_R34_NW USA_R50_NE USA_R50_SE USA_R50_SW USA_R50_NW USA_R64_NE USA_R64_SE USA_R64_SW USA_R64_NW USA_POCI USA_ROCI USA_RMW USA_EYE TOKYO_LAT TOKYO_LON TOKYO_GRADE TOKYO_WIND TOKYO_PRES TOKYO_R50_DIR TOKYO_R50_LONG TOKYO_R50_SHORT TOKYO_R30_DIR TOKYO_R30_LONG TOKYO_R30_SHORT TOKYO_LAND CMA_LAT CMA_LON CMA_CAT CMA_WIND CMA_PRES HKO_LAT HKO_LON HKO_CAT HKO_WIND HKO_PRES NEWDELHI_LAT NEWDELHI_LON NEWDELHI_GRADE NEWDELHI_WIND NEWDELHI_PRES NEWDELHI_CI NEWDELHI_DP NEWDELHI_POCI REUNION_LAT REUNION_LON REUNION_TYPE REUNION_WIND REUNION_PRES REUNION_TNUM REUNION_CI REUNION_RMW REUNION_R34_NE REUNION_R34_SE REUNION_R34_SW REUNION_R34_NW REUNION_R50_NE REUNION_R50_SE REUNION_R50_SW REUNION_R50_NW REUNION_R64_NE REUNION_R64_SE REUNION_R64_SW REUNION_R64_NW BOM_LAT BOM_LON BOM_TYPE BOM_WIND BOM_PRES BOM_TNUM BOM_CI BOM_RMW BOM_R34_NE BOM_R34_SE BOM_R34_SW BOM_R34_NW BOM_R50_NE BOM_R50_SE BOM_R50_SW BOM_R50_NW BOM_R64_NE BOM_R64_SE BOM_R64_SW BOM_R64_NW BOM_ROCI BOM_POCI BOM_EYE BOM_POS_METHOD BOM_PRES_METHOD NADI_LAT NADI_LON NADI_CAT NADI_WIND NADI_PRES WELLINGTON_LAT WELLINGTON_LON WELLINGTON_WIND WELLINGTON_PRES DS824_LAT DS824_LON DS824_STAGE DS824_WIND DS824_PRES TD9636_LAT TD9636_LON TD9636_STAGE TD9636_WIND TD9636_PRES TD9635_LAT TD9635_LON TD9635_WIND TD9635_PRES TD9635_ROCI NEUMANN_LAT NEUMANN_LON NEUMANN_CLASS NEUMANN_WIND NEUMANN_PRES MLC_LAT MLC_LON MLC_CLASS MLC_WIND MLC_PRES USA_GUST BOM_GUST BOM_GUST_PER REUNION_GUST REUNION_GUST_PER USA_SEAHGT USA_SEARAD_NE USA_SEARAD_SE USA_SEARAD_SW USA_SEARAD_NW STORM_SPEED STORM_DIR
1933184N12148 1933 22 WP MM NOT_NAMED 1933-07-02 22:00:00 NR 12.4000 148.100 main 1626 1625 __________O___ -1 12.4000 148.100 7 13 303
1933184N12148 1933 22 WP MM NOT_NAMED 1933-07-03 00:00:00 NR 12.6284 147.740 main 1647 1647 __________P___ -1 12.6284 147.740 7 13 304
1933184N12148 1933 22 WP MM NOT_NAMED 1933-07-03 03:00:00 NR 12.9850 147.202 main 1691 1691 __________P___ -1 12.9850 147.202 7 13 306
1933184N12148 1933 22 WP MM NOT_NAMED 1933-07-03 06:00:00 NR 13.3784 146.675 main 1736 1736 __________P___ -1 13.3784 146.675 7 13 310
1933184N12148 1933 22 WP MM NOT_NAMED 1933-07-03 09:00:00 NR 13.8317 146.165 main 1781 1793 __________P___ -1 13.8317 146.165 7 14 313
1933184N12148 1933 22 WP MM NOT_NAMED 1933-07-03 10:00:00 NR 14.0000 146.000 main 1804 1804 __________O___ -1 14.0000 146.000 7 14 319
1933184N12148 1933 22 WP MM NOT_NAMED 1933-07-03 12:00:00 NR 14.3652 145.679 main 1851 1851 __________P___ -1 14.3652 145.679 7 15 322
1933184N12148 1933 22 WP MM NOT_NAMED 1933-07-03 15:00:00 NR 14.9699 145.228 main 1921 1921 __________P___ -1 14.9699 145.228 7 15 327
1933184N12148 1933 22 WP MM NOT_NAMED 1933-07-03 18:00:00 NR 15.6178 144.828 main 1992 2003 __________P___ -1 15.6178 144.828 7 15 332
1933184N12148 1933 22 WP MM NOT_NAMED 1933-07-03 21:00:00 NR 16.2806 144.494 main 2074 2074 __________P___ -1 16.2806 144.494 7 15 335
1933184N12148 1933 22 WP MM NOT_NAMED 1933-07-03 22:00:00 NR 16.5000 144.400 main 2075 2025 __________O___ -1 16.5000 144.400 7 14 338
1933184N12148 1933 22 WP MM NOT_NAMED 1933-07-04 00:00:00 NR 16.9137 144.224 main 2025 1955 __________P___ -1 16.9137 144.224 7 13 341
1933184N12148 1933 22 WP MM NOT_NAMED 1933-07-04 03:00:00 NR 17.5346 144.023 main 1955 1879 __________P___ -1 17.5346 144.023 7 13 346
1933184N12148 1933 22 WP MM NOT_NAMED 1933-07-04 06:00:00 NR 18.1584 143.890 main 1879 1813 __________P___ -1 18.1584 143.890 7 13 351
1933184N12148 1933 22 WP MM NOT_NAMED 1933-07-04 09:00:00 NR 18.7882 143.814 main 1813 1793 __________P___ -1 18.7882 143.814 7 13 354
1933184N12148 1933 22 WP MM NOT_NAMED 1933-07-04 10:00:00 NR 19.0000 143.800 main 1793 1752 __________O___ -1 19.0000 143.800 7 13 0
1933184N12148 1933 22 WP MM NOT_NAMED 1933-07-04 12:00:00 NR 19.4266 143.786 main 1752 1682 __________P___ -1 19.4266 143.786 7 13 359
1933184N12148 1933 22 WP MM NOT_NAMED 1933-07-04 15:00:00 NR 20.0732 143.795 main 1682 1622 __________P___ -1 20.0732 143.795 7 13 2
1933184N12148 1933 22 WP MM NOT_NAMED 1933-07-04 18:00:00 NR 20.7256 143.831 main 1622 1555 __________P___ -1 20.7256 143.831 7 13 4
1933184N12148 1933 22 WP MM NOT_NAMED 1933-07-04 21:00:00 NR 21.3812 143.882 main 1555 1534 __________P___ -1 21.3812 143.882 7 13 4
1933184N12148 1933 22 WP MM NOT_NAMED 1933-07-04 22:00:00 NR 21.6000 143.900 main 1534 __________O___ -1 21.6000 143.900 7 13 7

Digital Typhoon Data and Search

About IBTrACS Database

This database is a web-friendly format of International Best Track Archive for Climate Stewardship (IBTrACS), a global best track data archive curated by NOAA dating back to 1842.

Updated: 2021-10-08